sensor_id;sensor_type;location;lat;lon;timestamp;pressure;altitude;pressure_sealevel;temperature;humidity
76201;BME280;64981;52.930;9.266;2023-10-08T00:01:35;101823.34;;;12.39;80.03
76201;BME280;64981;52.930;9.266;2023-10-08T00:04:06;101821.47;;;12.50;79.59
76201;BME280;64981;52.930;9.266;2023-10-08T00:06:33;101824.84;;;12.42;80.29
76201;BME280;64981;52.930;9.266;2023-10-08T00:08:59;101829.72;;;12.47;79.76
76201;BME280;64981;52.930;9.266;2023-10-08T00:11:26;101852.56;;;12.48;80.20
76201;BME280;64981;52.930;9.266;2023-10-08T00:13:54;101864.31;;;12.45;80.34
76201;BME280;64981;52.930;9.266;2023-10-08T00:16:21;101874.22;;;12.43;80.29
76201;BME280;64981;52.930;9.266;2023-10-08T00:18:48;101866.66;;;12.48;79.58
76201;BME280;64981;52.930;9.266;2023-10-08T00:21:20;101868.06;;;12.52;79.63
76201;BME280;64981;52.930;9.266;2023-10-08T00:23:51;101867.81;;;12.45;79.66
76201;BME280;64981;52.930;9.266;2023-10-08T00:26:19;101863.09;;;12.39;79.82
76201;BME280;64981;52.930;9.266;2023-10-08T00:28:55;101886.19;;;12.47;80.06
76201;BME280;64981;52.930;9.266;2023-10-08T00:31:21;101880.47;;;12.52;79.86
76201;BME280;64981;52.930;9.266;2023-10-08T00:33:51;101888.97;;;12.55;79.63
76201;BME280;64981;52.930;9.266;2023-10-08T00:36:16;101891.91;;;12.52;79.84
76201;BME280;64981;52.930;9.266;2023-10-08T00:38:45;101890.94;;;12.53;79.76
76201;BME280;64981;52.930;9.266;2023-10-08T00:41:14;101895.22;;;12.54;79.71
76201;BME280;64981;52.930;9.266;2023-10-08T00:43:40;101895.69;;;12.50;79.91
76201;BME280;64981;52.930;9.266;2023-10-08T00:46:08;101909.31;;;12.55;79.50
76201;BME280;64981;52.930;9.266;2023-10-08T00:48:46;101916.31;;;12.56;79.66
76201;BME280;64981;52.930;9.266;2023-10-08T00:51:13;101922.78;;;12.43;79.88
76201;BME280;64981;52.930;9.266;2023-10-08T00:54:00;101920.53;;;12.39;80.27
76201;BME280;64981;52.930;9.266;2023-10-08T00:56:33;101926.09;;;12.45;80.25
76201;BME280;64981;52.930;9.266;2023-10-08T00:59:09;101915.69;;;12.34;80.14
76201;BME280;64981;52.930;9.266;2023-10-08T01:01:48;101915.78;;;12.42;80.12
76201;BME280;64981;52.930;9.266;2023-10-08T01:04:18;101926.00;;;12.37;80.37
76201;BME280;64981;52.930;9.266;2023-10-08T01:06:49;101928.34;;;12.40;80.55
76201;BME280;64981;52.930;9.266;2023-10-08T01:09:19;101928.66;;;12.37;80.18
76201;BME280;64981;52.930;9.266;2023-10-08T01:12:07;101940.03;;;12.48;80.32
76201;BME280;64981;52.930;9.266;2023-10-08T01:14:34;101942.97;;;12.44;80.67
76201;BME280;64981;52.930;9.266;2023-10-08T01:17:01;101938.53;;;12.35;80.74
76201;BME280;64981;52.930;9.266;2023-10-08T01:19:26;101948.84;;;12.38;80.55
76201;BME280;64981;52.930;9.266;2023-10-08T01:21:53;101954.88;;;12.31;80.84
76201;BME280;64981;52.930;9.266;2023-10-08T01:24:18;101952.63;;;12.36;80.74
76201;BME280;64981;52.930;9.266;2023-10-08T01:26:49;101957.94;;;12.36;80.52
76201;BME280;64981;52.930;9.266;2023-10-08T01:29:14;101956.94;;;12.47;80.28
76201;BME280;64981;52.930;9.266;2023-10-08T01:31:50;101937.28;;;12.39;80.48
76201;BME280;64981;52.930;9.266;2023-10-08T01:34:18;101907.44;;;12.37;80.36
76201;BME280;64981;52.930;9.266;2023-10-08T01:36:51;101914.66;;;12.45;80.07
76201;BME280;64981;52.930;9.266;2023-10-08T01:39:17;101923.06;;;12.40;80.60
76201;BME280;64981;52.930;9.266;2023-10-08T01:41:44;101928.88;;;12.44;80.01
76201;BME280;64981;52.930;9.266;2023-10-08T01:44:10;101931.13;;;12.39;80.23
76201;BME280;64981;52.930;9.266;2023-10-08T01:46:36;101939.63;;;12.42;80.16
76201;BME280;64981;52.930;9.266;2023-10-08T01:49:01;101939.94;;;12.39;80.00
76201;BME280;64981;52.930;9.266;2023-10-08T01:51:35;101934.03;;;12.45;80.10
76201;BME280;64981;52.930;9.266;2023-10-08T01:54:03;101937.28;;;12.39;79.93
76201;BME280;64981;52.930;9.266;2023-10-08T01:56:37;101942.28;;;12.42;80.18
76201;BME280;64981;52.930;9.266;2023-10-08T01:59:03;101937.13;;;12.41;79.92
76201;BME280;64981;52.930;9.266;2023-10-08T02:01:29;101928.22;;;12.32;80.51
76201;BME280;64981;52.930;9.266;2023-10-08T02:03:55;101924.88;;;12.40;80.43
76201;BME280;64981;52.930;9.266;2023-10-08T02:06:21;101927.78;;;12.47;80.02
76201;BME280;64981;52.930;9.266;2023-10-08T02:08:47;101948.25;;;12.44;80.28
76201;BME280;64981;52.930;9.266;2023-10-08T02:11:13;101948.84;;;12.38;80.20
76201;BME280;64981;52.930;9.266;2023-10-08T02:13:41;101943.16;;;12.33;80.41
76201;BME280;64981;52.930;9.266;2023-10-08T02:16:07;101944.13;;;12.32;80.71
76201;BME280;64981;52.930;9.266;2023-10-08T02:18:33;101939.28;;;12.28;80.79
76201;BME280;64981;52.930;9.266;2023-10-08T02:20:58;101937.72;;;12.25;81.09
76201;BME280;64981;52.930;9.266;2023-10-08T02:23:24;101930.28;;;12.38;80.66
76201;BME280;64981;52.930;9.266;2023-10-08T02:25:50;101934.06;;;12.36;80.18
76201;BME280;64981;52.930;9.266;2023-10-08T02:28:15;101914.00;;;12.33;80.43
76201;BME280;64981;52.930;9.266;2023-10-08T02:30:43;101931.13;;;12.39;80.45
76201;BME280;64981;52.930;9.266;2023-10-08T02:33:09;101941.59;;;12.40;79.95
76201;BME280;64981;52.930;9.266;2023-10-08T02:35:40;101942.44;;;12.31;80.59
76201;BME280;64981;52.930;9.266;2023-10-08T02:38:09;101948.25;;;12.44;80.08
76201;BME280;64981;52.930;9.266;2023-10-08T02:40:37;101960.16;;;12.40;80.46
76201;BME280;64981;52.930;9.266;2023-10-08T02:43:03;101961.41;;;12.36;80.26
76201;BME280;64981;52.930;9.266;2023-10-08T02:45:32;101969.66;;;12.33;80.72
76201;BME280;64981;52.930;9.266;2023-10-08T02:48:03;101961.56;;;12.25;80.36
76201;BME280;64981;52.930;9.266;2023-10-08T02:50:29;101965.91;;;12.26;80.79
76201;BME280;64981;52.930;9.266;2023-10-08T02:52:54;101966.56;;;12.28;80.61
76201;BME280;64981;52.930;9.266;2023-10-08T02:55:28;101958.63;;;12.28;80.41
76201;BME280;64981;52.930;9.266;2023-10-08T02:58:00;101957.63;;;12.39;80.18
76201;BME280;64981;52.930;9.266;2023-10-08T03:00:28;101955.69;;;12.31;80.38
76201;BME280;64981;52.930;9.266;2023-10-08T03:02:57;101969.66;;;12.33;80.46
76201;BME280;64981;52.930;9.266;2023-10-08T03:05:22;101985.09;;;12.38;79.87
76201;BME280;64981;52.930;9.266;2023-10-08T03:07:48;102005.06;;;12.32;80.35
76201;BME280;64981;52.930;9.266;2023-10-08T03:10:17;102006.31;;;12.28;80.47
76201;BME280;64981;52.930;9.266;2023-10-08T03:12:44;102003.38;;;12.31;80.41
76201;BME280;64981;52.930;9.266;2023-10-08T03:15:12;102002.13;;;12.35;80.28
76201;BME280;64981;52.930;9.266;2023-10-08T03:17:41;102012.03;;;12.33;80.32
76201;BME280;64981;52.930;9.266;2023-10-08T03:20:15;101994.06;;;12.27;80.74
76201;BME280;64981;52.930;9.266;2023-10-08T03:22:51;102013.44;;;12.37;80.21
76201;BME280;64981;52.930;9.266;2023-10-08T03:25:16;102010.34;;;12.32;80.58
76201;BME280;64981;52.930;9.266;2023-10-08T03:27:43;102018.44;;;12.40;80.27
76201;BME280;64981;52.930;9.266;2023-10-08T03:30:09;102023.88;;;12.39;80.17
76201;BME280;64981;52.930;9.266;2023-10-08T03:32:41;102016.66;;;12.22;80.77
76201;BME280;64981;52.930;9.266;2023-10-08T03:35:08;102014.81;;;12.32;80.46
76201;BME280;64981;52.930;9.266;2023-10-08T03:37:38;101993.34;;;12.35;80.38
76201;BME280;64981;52.930;9.266;2023-10-08T03:40:11;102010.22;;;12.34;80.70
76201;BME280;64981;52.930;9.266;2023-10-08T03:42:46;102016.38;;;12.34;80.58
76201;BME280;64981;52.930;9.266;2023-10-08T03:45:15;102017.91;;;12.27;80.70
76201;BME280;64981;52.930;9.266;2023-10-08T03:47:48;102014.81;;;12.32;80.42
76201;BME280;64981;52.930;9.266;2023-10-08T03:50:29;102035.31;;;12.30;80.50
76201;BME280;64981;52.930;9.266;2023-10-08T03:52:58;102050.94;;;12.33;80.73
76201;BME280;64981;52.930;9.266;2023-10-08T03:55:23;102055.13;;;12.26;80.53
76201;BME280;64981;52.930;9.266;2023-10-08T03:57:52;102066.56;;;12.26;80.81
76201;BME280;64981;52.930;9.266;2023-10-08T04:00:29;102064.47;;;12.30;80.54
76201;BME280;64981;52.930;9.266;2023-10-08T04:02:57;102067.69;;;12.33;80.41
76201;BME280;64981;52.930;9.266;2023-10-08T04:05:27;102066.44;;;12.37;80.28
76201;BME280;64981;52.930;9.266;2023-10-08T04:07:58;102074.78;;;12.33;80.15
76201;BME280;64981;52.930;9.266;2023-10-08T04:10:42;102063.22;;;12.43;79.87
76201;BME280;64981;52.930;9.266;2023-10-08T04:13:23;102045.63;;;12.33;80.27
76201;BME280;64981;52.930;9.266;2023-10-08T04:15:49;102046.75;;;12.30;80.16
76201;BME280;64981;52.930;9.266;2023-10-08T04:18:14;102041.88;;;12.26;80.68
76201;BME280;64981;52.930;9.266;2023-10-08T04:20:40;102036.56;;;12.26;80.56
76201;BME280;64981;52.930;9.266;2023-10-08T04:23:24;102047.16;;;12.35;80.00
76201;BME280;64981;52.930;9.266;2023-10-08T04:25:50;102068.53;;;12.24;80.77
76201;BME280;64981;52.930;9.266;2023-10-08T04:28:20;102075.34;;;12.27;80.76
76201;BME280;64981;52.930;9.266;2023-10-08T04:30:48;102073.66;;;12.26;80.82
76201;BME280;64981;52.930;9.266;2023-10-08T04:33:13;102078.97;;;12.26;80.92
76201;BME280;64981;52.930;9.266;2023-10-08T04:35:42;102069.38;;;12.25;80.92
76201;BME280;64981;52.930;9.266;2023-10-08T04:38:21;102064.31;;;12.31;80.58
76201;BME280;64981;52.930;9.266;2023-10-08T04:40:48;102079.81;;;12.26;80.85
76201;BME280;64981;52.930;9.266;2023-10-08T04:43:15;102092.50;;;12.23;81.16
76201;BME280;64981;52.930;9.266;2023-10-08T04:45:48;102089.84;;;12.23;80.92
76201;BME280;64981;52.930;9.266;2023-10-08T04:48:14;102087.91;;;12.25;80.76
76201;BME280;64981;52.930;9.266;2023-10-08T04:50:47;102081.78;;;12.24;80.88
76201;BME280;64981;52.930;9.266;2023-10-08T04:53:25;102085.78;;;12.28;80.67
76201;BME280;64981;52.930;9.266;2023-10-08T04:55:57;102093.91;;;12.27;80.82
76201;BME280;64981;52.930;9.266;2023-10-08T04:58:23;102089.44;;;12.27;80.88
76201;BME280;64981;52.930;9.266;2023-10-08T05:01:00;102084.25;;;12.26;80.77
76201;BME280;64981;52.930;9.266;2023-10-08T05:03:44;102099.19;;;12.27;80.71
76201;BME280;64981;52.930;9.266;2023-10-08T05:06:32;102108.25;;;12.34;80.69
76201;BME280;64981;52.930;9.266;2023-10-08T05:09:16;102116.22;;;12.34;80.72
76201;BME280;64981;52.930;9.266;2023-10-08T05:11:51;102107.25;;;12.25;80.51
76201;BME280;64981;52.930;9.266;2023-10-08T05:14:32;102106.97;;;12.28;80.83
76201;BME280;64981;52.930;9.266;2023-10-08T05:17:07;102124.72;;;12.28;80.86
76201;BME280;64981;52.930;9.266;2023-10-08T05:19:38;102129.03;;;12.29;81.03
76201;BME280;64981;52.930;9.266;2023-10-08T05:22:16;102116.34;;;12.23;81.46
76201;BME280;64981;52.930;9.266;2023-10-08T05:24:52;102110.91;;;12.34;80.92
76201;BME280;64981;52.930;9.266;2023-10-08T05:27:28;102110.19;;;12.32;81.28
76201;BME280;64981;52.930;9.266;2023-10-08T05:30:04;102102.97;;;12.34;81.23
76201;BME280;64981;52.930;9.266;2023-10-08T05:32:40;102133.19;;;12.31;81.20
76201;BME280;64981;52.930;9.266;2023-10-08T05:35:16;102141.59;;;12.27;81.32
76201;BME280;64981;52.930;9.266;2023-10-08T05:37:51;102145.34;;;12.34;81.45
76201;BME280;64981;52.930;9.266;2023-10-08T05:40:28;102129.75;;;12.31;81.39
76201;BME280;64981;52.930;9.266;2023-10-08T05:43:03;102134.88;;;12.32;81.58
76201;BME280;64981;52.930;9.266;2023-10-08T05:45:48;102140.47;;;12.29;81.79
76201;BME280;64981;52.930;9.266;2023-10-08T05:48:33;102139.34;;;12.32;81.61
76201;BME280;64981;52.930;9.266;2023-10-08T05:51:10;102136.69;;;12.22;82.18
76201;BME280;64981;52.930;9.266;2023-10-08T05:53:49;102131.53;;;12.21;81.94
76201;BME280;64981;52.930;9.266;2023-10-08T05:56:21;102143.38;;;12.26;82.13
76201;BME280;64981;52.930;9.266;2023-10-08T05:58:54;102147.72;;;12.27;81.97
76201;BME280;64981;52.930;9.266;2023-10-08T06:01:40;102152.03;;;12.28;82.16
76201;BME280;64981;52.930;9.266;2023-10-08T06:04:07;102154.84;;;12.36;81.60
76201;BME280;64981;52.930;9.266;2023-10-08T06:06:52;102156.78;;;12.15;81.69
76201;BME280;64981;52.930;9.266;2023-10-08T06:09:38;102158.44;;;12.26;81.87
76201;BME280;64981;52.930;9.266;2023-10-08T06:12:06;102166.84;;;12.31;81.94
76201;BME280;64981;52.930;9.266;2023-10-08T06:14:36;102164.31;;;12.29;81.51
76201;BME280;64981;52.930;9.266;2023-10-08T06:17:18;102173.66;;;12.43;81.72
76201;BME280;64981;52.930;9.266;2023-10-08T06:19:56;102189.56;;;12.43;81.74
76201;BME280;64981;52.930;9.266;2023-10-08T06:22:21;102195.25;;;12.38;81.77
76201;BME280;64981;52.930;9.266;2023-10-08T06:24:51;102193.88;;;12.44;81.94
76201;BME280;64981;52.930;9.266;2023-10-08T06:27:36;102203.38;;;12.47;81.45
76201;BME280;64981;52.930;9.266;2023-10-08T06:30:02;102207.56;;;12.49;81.56
76201;BME280;64981;52.930;9.266;2023-10-08T06:32:29;102199.88;;;12.46;81.65
76201;BME280;64981;52.930;9.266;2023-10-08T06:34:55;102194.59;;;12.56;81.59
76201;BME280;64981;52.930;9.266;2023-10-08T06:37:21;102199.91;;;12.65;81.24
76201;BME280;64981;52.930;9.266;2023-10-08T06:39:47;102201.53;;;12.66;81.05
76201;BME280;64981;52.930;9.266;2023-10-08T06:42:14;102200.97;;;12.72;80.94
76201;BME280;64981;52.930;9.266;2023-10-08T06:44:41;102200.44;;;12.69;80.77
76201;BME280;64981;52.930;9.266;2023-10-08T06:47:12;102210.22;;;12.78;81.06
76201;BME280;64981;52.930;9.266;2023-10-08T06:49:42;102217.44;;;12.76;81.28
76201;BME280;64981;52.930;9.266;2023-10-08T06:52:08;102219.44;;;12.83;80.64
76201;BME280;64981;52.930;9.266;2023-10-08T06:54:36;102217.72;;;12.82;80.55
76201;BME280;64981;52.930;9.266;2023-10-08T06:57:02;102237.53;;;12.78;80.74
76201;BME280;64981;52.930;9.266;2023-10-08T06:59:27;102229.47;;;12.80;81.04
76201;BME280;64981;52.930;9.266;2023-10-08T07:01:57;102219.28;;;12.85;80.97
76201;BME280;64981;52.930;9.266;2023-10-08T07:04:24;102213.00;;;12.95;80.57
76201;BME280;64981;52.930;9.266;2023-10-08T07:06:50;102211.31;;;12.94;80.51
76201;BME280;64981;52.930;9.266;2023-10-08T07:09:17;102209.25;;;12.88;80.26
76201;BME280;64981;52.930;9.266;2023-10-08T07:11:52;102230.31;;;13.00;80.28
76201;BME280;64981;52.930;9.266;2023-10-08T07:14:22;102240.91;;;13.09;80.46
76201;BME280;64981;52.930;9.266;2023-10-08T07:16:48;102227.38;;;13.12;80.23
76201;BME280;64981;52.930;9.266;2023-10-08T07:19:17;102241.59;;;13.21;80.24
76201;BME280;64981;52.930;9.266;2023-10-08T07:21:45;102250.22;;;13.23;80.06
76201;BME280;64981;52.930;9.266;2023-10-08T07:24:13;102243.53;;;13.28;79.76
76201;BME280;64981;52.930;9.266;2023-10-08T07:26:48;102248.00;;;13.28;80.18
76201;BME280;64981;52.930;9.266;2023-10-08T07:29:16;102248.84;;;13.28;80.20
76201;BME280;64981;52.930;9.266;2023-10-08T07:31:44;102263.34;;;13.34;80.32
76201;BME280;64981;52.930;9.266;2023-10-08T07:34:15;102257.75;;;13.37;80.38
76201;BME280;64981;52.930;9.266;2023-10-08T07:36:42;102265.84;;;13.35;80.46
76201;BME280;64981;52.930;9.266;2023-10-08T07:39:09;102246.72;;;13.32;79.54
76201;BME280;64981;52.930;9.266;2023-10-08T07:41:47;102262.63;;;13.41;79.90
76201;BME280;64981;52.930;9.266;2023-10-08T07:44:13;102264.19;;;13.44;79.91
76201;BME280;64981;52.930;9.266;2023-10-08T07:46:39;102256.63;;;13.39;79.21
76201;BME280;64981;52.930;9.266;2023-10-08T07:49:04;102265.25;;;13.51;79.15
76201;BME280;64981;52.930;9.266;2023-10-08T07:51:30;102278.09;;;13.56;79.47
76201;BME280;64981;52.930;9.266;2023-10-08T07:53:56;102269.59;;;13.52;79.24
76201;BME280;64981;52.930;9.266;2023-10-08T07:56:24;102274.88;;;13.62;79.01
76201;BME280;64981;52.930;9.266;2023-10-08T07:58:50;102273.31;;;13.69;78.75
76201;BME280;64981;52.930;9.266;2023-10-08T08:01:16;102269.38;;;13.73;77.75
76201;BME280;64981;52.930;9.266;2023-10-08T08:03:42;102280.16;;;13.71;77.30
76201;BME280;64981;52.930;9.266;2023-10-08T08:06:08;102290.91;;;13.70;76.55
76201;BME280;64981;52.930;9.266;2023-10-08T08:08:37;102296.34;;;13.78;76.93
76201;BME280;64981;52.930;9.266;2023-10-08T08:11:04;102294.81;;;13.75;77.53
76201;BME280;64981;52.930;9.266;2023-10-08T08:13:39;102299.81;;;13.88;77.85
76201;BME280;64981;52.930;9.266;2023-10-08T08:16:10;102302.31;;;13.89;78.07
76201;BME280;64981;52.930;9.266;2023-10-08T08:18:47;102299.22;;;13.94;76.40
76201;BME280;64981;52.930;9.266;2023-10-08T08:21:15;102295.31;;;13.98;75.77
76201;BME280;64981;52.930;9.266;2023-10-08T08:23:43;102308.50;;;14.17;75.56
76201;BME280;64981;52.930;9.266;2023-10-08T08:26:15;102311.41;;;14.24;75.74
76201;BME280;64981;52.930;9.266;2023-10-08T08:29:00;102319.63;;;14.30;75.69
76201;BME280;64981;52.930;9.266;2023-10-08T08:31:28;102324.22;;;14.38;73.63
76201;BME280;64981;52.930;9.266;2023-10-08T08:34:02;102332.22;;;14.38;73.28
76201;BME280;64981;52.930;9.266;2023-10-08T08:36:30;102335.50;;;14.49;73.60
76201;BME280;64981;52.930;9.266;2023-10-08T08:38:57;102331.84;;;14.50;72.83
76201;BME280;64981;52.930;9.266;2023-10-08T08:41:24;102337.47;;;14.47;72.09
76201;BME280;64981;52.930;9.266;2023-10-08T08:43:54;102336.34;;;14.50;71.93
76201;BME280;64981;52.930;9.266;2023-10-08T08:46:34;102330.16;;;14.49;71.56
76201;BME280;64981;52.930;9.266;2023-10-08T08:49:03;102345.38;;;14.57;69.15
76201;BME280;64981;52.930;9.266;2023-10-08T08:51:30;102352.97;;;14.70;69.24
76201;BME280;64981;52.930;9.266;2023-10-08T08:53:56;102358.47;;;14.68;70.32
76201;BME280;64981;52.930;9.266;2023-10-08T08:56:26;102368.28;;;14.85;68.35
76201;BME280;64981;52.930;9.266;2023-10-08T08:58:53;102361.13;;;14.86;66.93
76201;BME280;64981;52.930;9.266;2023-10-08T09:01:20;102356.53;;;14.88;67.10
76201;BME280;64981;52.930;9.266;2023-10-08T09:03:46;102361.06;;;14.95;64.99
76201;BME280;64981;52.930;9.266;2023-10-08T09:06:14;102358.91;;;15.08;64.56
76201;BME280;64981;52.930;9.266;2023-10-08T09:08:39;102352.97;;;14.97;66.42
76201;BME280;64981;52.930;9.266;2023-10-08T09:11:08;102369.25;;;15.12;66.92
76201;BME280;64981;52.930;9.266;2023-10-08T09:13:35;102368.94;;;15.15;68.09
76201;BME280;64981;52.930;9.266;2023-10-08T09:16:15;102362.91;;;14.95;64.00
76201;BME280;64981;52.930;9.266;2023-10-08T09:18:43;102372.63;;;15.04;64.01
76201;BME280;64981;52.930;9.266;2023-10-08T09:21:12;102374.22;;;15.06;64.77
76201;BME280;64981;52.930;9.266;2023-10-08T09:23:43;102370.69;;;15.24;66.69
76201;BME280;64981;52.930;9.266;2023-10-08T09:26:10;102356.72;;;15.22;64.34
76201;BME280;64981;52.930;9.266;2023-10-08T09:28:37;102366.50;;;15.21;62.78
76201;BME280;64981;52.930;9.266;2023-10-08T09:31:04;102357.97;;;15.00;65.71
76201;BME280;64981;52.930;9.266;2023-10-08T09:33:32;102355.09;;;15.11;65.36
76201;BME280;64981;52.930;9.266;2023-10-08T09:35:59;102354.19;;;15.20;65.50
76201;BME280;64981;52.930;9.266;2023-10-08T09:38:28;102362.63;;;15.33;64.59
76201;BME280;64981;52.930;9.266;2023-10-08T09:40:57;102361.25;;;15.29;64.63
76201;BME280;64981;52.930;9.266;2023-10-08T09:43:23;102360.66;;;15.18;67.81
76201;BME280;64981;52.930;9.266;2023-10-08T09:45:55;102358.09;;;15.26;63.00
76201;BME280;64981;52.930;9.266;2023-10-08T09:48:26;102366.44;;;15.13;62.92
76201;BME280;64981;52.930;9.266;2023-10-08T09:50:58;102371.44;;;15.34;62.43
76201;BME280;64981;52.930;9.266;2023-10-08T09:53:36;102379.34;;;15.43;58.07
76201;BME280;64981;52.930;9.266;2023-10-08T09:56:13;102373.84;;;15.62;58.56
76201;BME280;64981;52.930;9.266;2023-10-08T09:58:42;102377.31;;;15.37;58.06
76201;BME280;64981;52.930;9.266;2023-10-08T10:01:10;102373.44;;;15.75;57.92
76201;BME280;64981;52.930;9.266;2023-10-08T10:03:36;102389.13;;;15.35;59.00
76201;BME280;64981;52.930;9.266;2023-10-08T10:06:02;102380.16;;;15.61;56.59
76201;BME280;64981;52.930;9.266;2023-10-08T10:08:28;102397.31;;;15.85;54.93
76201;BME280;64981;52.930;9.266;2023-10-08T10:11:01;102384.84;;;15.85;56.68
76201;BME280;64981;52.930;9.266;2023-10-08T10:13:29;102391.84;;;16.12;56.93
76201;BME280;64981;52.930;9.266;2023-10-08T10:15:58;102373.81;;;16.06;54.50
76201;BME280;64981;52.930;9.266;2023-10-08T10:18:28;102359.50;;;16.41;53.41
76201;BME280;64981;52.930;9.266;2023-10-08T10:23:43;102374.03;;;16.46;52.48
76201;BME280;64981;52.930;9.266;2023-10-08T10:26:24;102383.91;;;16.62;50.60
76201;BME280;64981;52.930;9.266;2023-10-08T10:31:39;102397.06;;;16.55;52.46
76201;BME280;64981;52.930;9.266;2023-10-08T10:34:06;102399.72;;;16.55;52.68
76201;BME280;64981;52.930;9.266;2023-10-08T10:36:37;102388.84;;;16.41;52.81
76201;BME280;64981;52.930;9.266;2023-10-08T10:39:06;102388.09;;;15.79;53.72
76201;BME280;64981;52.930;9.266;2023-10-08T10:41:45;102394.59;;;15.77;52.91
76201;BME280;64981;52.930;9.266;2023-10-08T10:44:12;102377.84;;;15.84;54.70
76201;BME280;64981;52.930;9.266;2023-10-08T10:46:41;102370.22;;;16.15;55.72
76201;BME280;64981;52.930;9.266;2023-10-08T10:49:07;102367.41;;;15.99;54.76
76201;BME280;64981;52.930;9.266;2023-10-08T10:51:44;102360.59;;;16.22;54.73
76201;BME280;64981;52.930;9.266;2023-10-08T10:54:10;102348.25;;;16.21;53.29
76201;BME280;64981;52.930;9.266;2023-10-08T10:56:35;102362.94;;;16.25;53.09
76201;BME280;64981;52.930;9.266;2023-10-08T10:59:08;102373.28;;;16.28;53.17
76201;BME280;64981;52.930;9.266;2023-10-08T11:01:46;102389.41;;;16.27;55.07
76201;BME280;64981;52.930;9.266;2023-10-08T11:04:18;102406.75;;;16.23;55.53
76201;BME280;64981;52.930;9.266;2023-10-08T11:06:48;102420.16;;;16.39;56.33
76201;BME280;64981;52.930;9.266;2023-10-08T11:09:16;102410.81;;;16.35;55.34
76201;BME280;64981;52.930;9.266;2023-10-08T11:11:52;102382.38;;;16.17;56.19
76201;BME280;64981;52.930;9.266;2023-10-08T11:14:20;102337.91;;;16.26;55.70
76201;BME280;64981;52.930;9.266;2023-10-08T11:16:47;102299.94;;;16.24;54.26
76201;BME280;64981;52.930;9.266;2023-10-08T11:19:14;102331.91;;;16.16;53.61
76201;BME280;64981;52.930;9.266;2023-10-08T11:21:49;102373.91;;;16.22;55.04
76201;BME280;64981;52.930;9.266;2023-10-08T11:24:27;102391.94;;;16.28;54.30
76201;BME280;64981;52.930;9.266;2023-10-08T11:26:54;102392.41;;;16.24;56.12
76201;BME280;64981;52.930;9.266;2023-10-08T11:29:32;102402.31;;;16.39;56.68
76201;BME280;64981;52.930;9.266;2023-10-08T11:32:00;102402.06;;;16.50;54.26
76201;BME280;64981;52.930;9.266;2023-10-08T11:34:33;102404.34;;;16.11;54.30
76201;BME280;64981;52.930;9.266;2023-10-08T11:37:05;102400.28;;;16.33;54.53
76201;BME280;64981;52.930;9.266;2023-10-08T11:39:46;102394.66;;;15.85;53.42
76201;BME280;64981;52.930;9.266;2023-10-08T11:42:11;102396.53;;;15.92;54.21
76201;BME280;64981;52.930;9.266;2023-10-08T11:44:47;102378.00;;;16.08;53.58
76201;BME280;64981;52.930;9.266;2023-10-08T11:47:13;102386.19;;;16.15;52.42
76201;BME280;64981;52.930;9.266;2023-10-08T11:49:46;102376.19;;;16.09;53.28
76201;BME280;64981;52.930;9.266;2023-10-08T11:52:16;102376.00;;;16.10;54.51
76201;BME280;64981;52.930;9.266;2023-10-08T11:54:44;102366.91;;;16.21;54.87
76201;BME280;64981;52.930;9.266;2023-10-08T11:57:10;102358.34;;;15.84;52.90
76201;BME280;64981;52.930;9.266;2023-10-08T11:59:36;102354.53;;;16.12;52.70
76201;BME280;64981;52.930;9.266;2023-10-08T12:02:06;102363.44;;;16.03;53.37
76201;BME280;64981;52.930;9.266;2023-10-08T12:04:31;102354.88;;;16.17;53.52
76201;BME280;64981;52.930;9.266;2023-10-08T12:06:58;102364.13;;;16.31;51.09
76201;BME280;64981;52.930;9.266;2023-10-08T12:09:28;102362.34;;;15.62;52.78
76201;BME280;64981;52.930;9.266;2023-10-08T12:11:54;102362.09;;;15.73;52.13
76201;BME280;64981;52.930;9.266;2023-10-08T12:14:19;102353.63;;;15.52;53.28
76201;BME280;64981;52.930;9.266;2023-10-08T12:16:45;102347.72;;;15.92;52.22
76201;BME280;64981;52.930;9.266;2023-10-08T12:19:11;102339.41;;;15.95;52.84
76201;BME280;64981;52.930;9.266;2023-10-08T12:21:45;102328.19;;;16.09;52.42
76201;BME280;64981;52.930;9.266;2023-10-08T12:24:13;102317.88;;;16.14;51.44
76201;BME280;64981;52.930;9.266;2023-10-08T12:26:39;102297.06;;;16.17;52.35
76201;BME280;64981;52.930;9.266;2023-10-08T12:29:12;102297.94;;;16.26;52.10
76201;BME280;64981;52.930;9.266;2023-10-08T12:31:40;102300.78;;;16.33;52.36
76201;BME280;64981;52.930;9.266;2023-10-08T12:34:06;102303.50;;;16.41;51.91
76201;BME280;64981;52.930;9.266;2023-10-08T12:36:32;102295.19;;;16.52;52.20
76201;BME280;64981;52.930;9.266;2023-10-08T12:39:01;102297.22;;;16.74;52.23
76201;BME280;64981;52.930;9.266;2023-10-08T12:41:34;102306.56;;;16.86;50.28
76201;BME280;64981;52.930;9.266;2023-10-08T12:44:04;102326.50;;;17.00;49.63
76201;BME280;64981;52.930;9.266;2023-10-08T12:46:32;102330.97;;;16.99;46.88
76201;BME280;64981;52.930;9.266;2023-10-08T12:48:59;102318.59;;;16.98;47.17
76201;BME280;64981;52.930;9.266;2023-10-08T12:51:28;102334.50;;;17.00;47.26
76201;BME280;64981;52.930;9.266;2023-10-08T12:53:58;102336.66;;;17.04;46.14
76201;BME280;64981;52.930;9.266;2023-10-08T12:56:29;102336.50;;;17.06;46.24
76201;BME280;64981;52.930;9.266;2023-10-08T12:59:01;102335.66;;;17.05;48.80
76201;BME280;64981;52.930;9.266;2023-10-08T13:01:30;102335.00;;;17.03;50.06
76201;BME280;64981;52.930;9.266;2023-10-08T13:03:56;102339.94;;;16.90;50.48
76201;BME280;64981;52.930;9.266;2023-10-08T13:06:34;102341.63;;;16.91;51.96
76201;BME280;64981;52.930;9.266;2023-10-08T13:09:04;102357.66;;;16.91;50.82
76201;BME280;64981;52.930;9.266;2023-10-08T13:11:38;102365.16;;;16.88;50.87